sensor_id;sensor_type;location;lat;lon;timestamp;pressure;altitude;pressure_sealevel;temperature;humidity
34124;BME280;13153;52.316;21.166;2023-03-14T00:00:08;98766.44;;;14.39;49.02
34124;BME280;13153;52.316;21.166;2023-03-14T00:02:36;98757.59;;;14.41;48.94
34124;BME280;13153;52.316;21.166;2023-03-14T00:05:03;98755.81;;;14.43;49.19
34124;BME280;13153;52.316;21.166;2023-03-14T00:07:37;98764.69;;;14.36;49.14
34124;BME280;13153;52.316;21.166;2023-03-14T00:10:11;98776.38;;;14.21;49.69
34124;BME280;13153;52.316;21.166;2023-03-14T00:12:39;98771.91;;;14.25;49.47
34124;BME280;13153;52.316;21.166;2023-03-14T00:15:06;98761.34;;;14.25;49.05
34124;BME280;13153;52.316;21.166;2023-03-14T00:17:34;98763.09;;;14.25;49.33
34124;BME280;13153;52.316;21.166;2023-03-14T00:20:00;98754.59;;;14.03;50.05
34124;BME280;13153;52.316;21.166;2023-03-14T00:22:35;98756.16;;;14.17;49.79
34124;BME280;13153;52.316;21.166;2023-03-14T00:25:02;98745.53;;;14.20;49.63
34124;BME280;13153;52.316;21.166;2023-03-14T00:27:28;98739.50;;;14.09;49.69
34124;BME280;13153;52.316;21.166;2023-03-14T00:29:54;98742.13;;;14.12;49.88
34124;BME280;13153;52.316;21.166;2023-03-14T00:32:20;98743.97;;;14.06;49.61
34124;BME280;13153;52.316;21.166;2023-03-14T00:34:45;98741.38;;;14.01;49.64
34124;BME280;13153;52.316;21.166;2023-03-14T00:37:13;98743.22;;;13.96;50.35
34124;BME280;13153;52.316;21.166;2023-03-14T00:39:39;98739.00;;;13.84;50.22
34124;BME280;13153;52.316;21.166;2023-03-14T00:42:05;98727.53;;;13.85;50.59
34124;BME280;13153;52.316;21.166;2023-03-14T00:44:31;98729.34;;;13.82;50.21
34124;BME280;13153;52.316;21.166;2023-03-14T00:46:57;98724.13;;;13.76;50.76
34124;BME280;13153;52.316;21.166;2023-03-14T00:49:23;98729.31;;;13.85;50.46
34124;BME280;13153;52.316;21.166;2023-03-14T00:51:49;98711.72;;;13.81;50.66
34124;BME280;13153;52.316;21.166;2023-03-14T00:54:18;98709.13;;;13.78;50.27
34124;BME280;13153;52.316;21.166;2023-03-14T00:56:44;98704.75;;;13.75;50.22
34124;BME280;13153;52.316;21.166;2023-03-14T00:59:10;98701.28;;;13.72;50.34
34124;BME280;13153;52.316;21.166;2023-03-14T01:01:36;98691.66;;;13.66;50.21
34124;BME280;13153;52.316;21.166;2023-03-14T01:04:02;98682.91;;;13.63;50.47
34124;BME280;13153;52.316;21.166;2023-03-14T01:06:29;98681.09;;;13.66;50.08
34124;BME280;13153;52.316;21.166;2023-03-14T01:08:57;98687.38;;;13.56;50.32
34124;BME280;13153;52.316;21.166;2023-03-14T01:11:27;98685.72;;;13.47;50.17
34124;BME280;13153;52.316;21.166;2023-03-14T01:13:55;98687.44;;;13.51;50.39
34124;BME280;13153;52.316;21.166;2023-03-14T01:16:25;98677.81;;;13.47;50.39
34124;BME280;13153;52.316;21.166;2023-03-14T01:18:51;98669.13;;;13.38;50.15
34124;BME280;13153;52.316;21.166;2023-03-14T01:21:33;98676.97;;;13.42;49.87
34124;BME280;13153;52.316;21.166;2023-03-14T01:24:02;98673.50;;;13.39;50.01
34124;BME280;13153;52.316;21.166;2023-03-14T01:26:31;98683.97;;;13.48;49.80
34124;BME280;13153;52.316;21.166;2023-03-14T01:28:58;98676.09;;;13.42;50.09
34124;BME280;13153;52.316;21.166;2023-03-14T01:31:25;98668.25;;;13.37;49.60
34124;BME280;13153;52.316;21.166;2023-03-14T01:33:51;98681.44;;;13.39;49.71
34124;BME280;13153;52.316;21.166;2023-03-14T01:36:17;98675.22;;;13.41;49.86
34124;BME280;13153;52.316;21.166;2023-03-14T01:38:44;98681.47;;;13.34;49.66
34124;BME280;13153;52.316;21.166;2023-03-14T01:41:18;98681.47;;;13.36;49.72
34124;BME280;13153;52.316;21.166;2023-03-14T01:43:44;98676.16;;;13.39;49.18
34124;BME280;13153;52.316;21.166;2023-03-14T01:46:32;98676.16;;;13.37;49.15
34124;BME280;13153;52.316;21.166;2023-03-14T01:49:19;98672.69;;;13.34;48.97
34124;BME280;13153;52.316;21.166;2023-03-14T01:51:59;98670.03;;;13.35;49.23
34124;BME280;13153;52.316;21.166;2023-03-14T01:54:36;98677.97;;;13.34;48.99
34124;BME280;13153;52.316;21.166;2023-03-14T01:59:56;98673.56;;;13.33;48.67
34124;BME280;13153;52.316;21.166;2023-03-14T02:02:26;98674.41;;;13.36;49.02
34124;BME280;13153;52.316;21.166;2023-03-14T02:04:54;98678.00;;;13.31;48.76
34124;BME280;13153;52.316;21.166;2023-03-14T02:07:59;98679.69;;;13.38;48.83
34124;BME280;13153;52.316;21.166;2023-03-14T02:10:29;98664.81;;;13.29;48.84
34124;BME280;13153;52.316;21.166;2023-03-14T02:12:58;98656.00;;;13.29;48.42
34124;BME280;13153;52.316;21.166;2023-03-14T02:15:25;98649.94;;;13.25;48.67
34124;BME280;13153;52.316;21.166;2023-03-14T02:17:52;98644.63;;;13.27;48.48
34124;BME280;13153;52.316;21.166;2023-03-14T02:20:49;98639.41;;;13.20;48.73
34124;BME280;13153;52.316;21.166;2023-03-14T02:23:31;98641.22;;;13.17;48.26
34124;BME280;13153;52.316;21.166;2023-03-14T02:29:03;98642.91;;;13.24;47.95
34124;BME280;13153;52.316;21.166;2023-03-14T02:31:29;98642.09;;;13.17;48.04
34124;BME280;13153;52.316;21.166;2023-03-14T02:33:56;98626.28;;;13.16;48.07
34124;BME280;13153;52.316;21.166;2023-03-14T02:36:23;98628.06;;;13.11;48.19
34124;BME280;13153;52.316;21.166;2023-03-14T02:39:14;98620.16;;;13.09;48.29
34124;BME280;13153;52.316;21.166;2023-03-14T02:41:43;98608.69;;;13.12;47.85
34124;BME280;13153;52.316;21.166;2023-03-14T02:44:11;98603.41;;;13.12;47.78
34124;BME280;13153;52.316;21.166;2023-03-14T02:46:37;98590.41;;;12.95;48.05
34124;BME280;13153;52.316;21.166;2023-03-14T02:49:13;98588.56;;;13.02;47.90
34124;BME280;13153;52.316;21.166;2023-03-14T02:51:41;98591.13;;;13.09;47.96
34124;BME280;13153;52.316;21.166;2023-03-14T02:54:09;98580.66;;;13.00;47.87
34124;BME280;13153;52.316;21.166;2023-03-14T02:56:34;98586.97;;;12.88;48.16
34124;BME280;13153;52.316;21.166;2023-03-14T02:59:04;98587.88;;;12.86;48.08
34124;BME280;13153;52.316;21.166;2023-03-14T03:01:29;98586.19;;;12.80;48.49
34124;BME280;13153;52.316;21.166;2023-03-14T03:03:55;98590.59;;;12.77;48.33
34124;BME280;13153;52.316;21.166;2023-03-14T03:06:21;98583.56;;;12.79;48.19
34124;BME280;13153;52.316;21.166;2023-03-14T03:08:47;98589.75;;;12.75;48.30
34124;BME280;13153;52.316;21.166;2023-03-14T03:11:13;98580.41;;;12.45;48.96
34124;BME280;13153;52.316;21.166;2023-03-14T03:13:40;98567.16;;;12.52;48.68
34124;BME280;13153;52.316;21.166;2023-03-14T03:16:06;98572.28;;;12.68;48.44
34124;BME280;13153;52.316;21.166;2023-03-14T03:18:32;98573.31;;;12.51;48.74
34124;BME280;13153;52.316;21.166;2023-03-14T03:21:05;98571.66;;;12.41;49.18
34124;BME280;13153;52.316;21.166;2023-03-14T03:23:31;98574.28;;;12.43;48.91
34124;BME280;13153;52.316;21.166;2023-03-14T03:25:57;98583.84;;;12.54;48.76
34124;BME280;13153;52.316;21.166;2023-03-14T03:28:23;98597.94;;;12.50;48.86
34124;BME280;13153;52.316;21.166;2023-03-14T03:30:49;98599.72;;;12.48;48.60
34124;BME280;13153;52.316;21.166;2023-03-14T03:33:15;98573.38;;;12.47;48.56
34124;BME280;13153;52.316;21.166;2023-03-14T03:35:46;98577.88;;;12.36;48.97
34124;BME280;13153;52.316;21.166;2023-03-14T03:38:12;98578.72;;;12.38;48.73
34124;BME280;13153;52.316;21.166;2023-03-14T03:40:39;98577.00;;;12.37;48.72
34124;BME280;13153;52.316;21.166;2023-03-14T03:43:04;98567.34;;;12.34;48.73
34124;BME280;13153;52.316;21.166;2023-03-14T03:45:31;98570.00;;;12.31;48.86
34124;BME280;13153;52.316;21.166;2023-03-14T03:47:56;98569.22;;;12.21;49.21
34124;BME280;13153;52.316;21.166;2023-03-14T03:50:22;98570.94;;;12.24;48.72
34124;BME280;13153;52.316;21.166;2023-03-14T03:52:48;98572.69;;;12.27;48.66
34124;BME280;13153;52.316;21.166;2023-03-14T03:55:14;98560.41;;;12.24;48.54
34124;BME280;13153;52.316;21.166;2023-03-14T03:57:40;98561.50;;;12.05;49.08
34124;BME280;13153;52.316;21.166;2023-03-14T04:00:07;98565.75;;;12.15;48.85
34124;BME280;13153;52.316;21.166;2023-03-14T04:02:36;98565.75;;;12.15;48.62
34124;BME280;13153;52.316;21.166;2023-03-14T04:05:02;98566.72;;;12.08;48.50
34124;BME280;13153;52.316;21.166;2023-03-14T04:07:28;98584.22;;;12.15;48.88
34124;BME280;13153;52.316;21.166;2023-03-14T04:09:53;98579.78;;;12.18;48.72
34124;BME280;13153;52.316;21.166;2023-03-14T04:12:19;98578.13;;;12.10;48.50
34124;BME280;13153;52.316;21.166;2023-03-14T04:14:45;98596.56;;;12.11;48.55
34124;BME280;13153;52.316;21.166;2023-03-14T04:17:11;98579.91;;;12.09;48.86
34124;BME280;13153;52.316;21.166;2023-03-14T04:19:37;98577.34;;;11.99;48.77
34124;BME280;13153;52.316;21.166;2023-03-14T04:22:03;98595.75;;;12.05;48.75
34124;BME280;13153;52.316;21.166;2023-03-14T04:24:29;98582.56;;;12.08;48.57
34124;BME280;13153;52.316;21.166;2023-03-14T04:26:55;98580.91;;;11.92;49.05
34124;BME280;13153;52.316;21.166;2023-03-14T04:29:20;98580.91;;;11.95;49.01
34124;BME280;13153;52.316;21.166;2023-03-14T04:31:46;98564.16;;;12.02;48.97
34124;BME280;13153;52.316;21.166;2023-03-14T04:34:12;98565.03;;;12.01;48.89
34124;BME280;13153;52.316;21.166;2023-03-14T04:36:38;98567.75;;;11.90;48.94
34124;BME280;13153;52.316;21.166;2023-03-14T04:39:04;98566.03;;;11.86;48.96
34124;BME280;13153;52.316;21.166;2023-03-14T04:41:30;98573.97;;;11.80;49.11
34124;BME280;13153;52.316;21.166;2023-03-14T04:43:56;98557.31;;;11.79;49.11
34124;BME280;13153;52.316;21.166;2023-03-14T04:46:21;98570.47;;;11.79;49.29
34124;BME280;13153;52.316;21.166;2023-03-14T04:48:47;98559.06;;;11.80;49.12
34124;BME280;13153;52.316;21.166;2023-03-14T04:51:13;98557.25;;;11.84;49.05
34124;BME280;13153;52.316;21.166;2023-03-14T04:53:39;98550.22;;;11.84;49.03
34124;BME280;13153;52.316;21.166;2023-03-14T04:56:06;98545.03;;;11.77;49.20
34124;BME280;13153;52.316;21.166;2023-03-14T04:58:32;98551.13;;;11.83;48.99
34124;BME280;13153;52.316;21.166;2023-03-14T05:01:05;98541.47;;;11.76;49.14
34124;BME280;13153;52.316;21.166;2023-03-14T05:03:31;98527.41;;;11.82;49.22
34124;BME280;13153;52.316;21.166;2023-03-14T05:05:57;98522.09;;;11.88;49.08
34124;BME280;13153;52.316;21.166;2023-03-14T05:08:24;98505.44;;;11.84;48.96
34124;BME280;13153;52.316;21.166;2023-03-14T05:10:57;98517.69;;;11.92;48.93
34124;BME280;13153;52.316;21.166;2023-03-14T05:13:23;98512.31;;;12.01;48.49
34124;BME280;13153;52.316;21.166;2023-03-14T05:15:50;98511.38;;;12.08;48.29
34124;BME280;13153;52.316;21.166;2023-03-14T05:18:16;98507.84;;;12.10;48.34
34124;BME280;13153;52.316;21.166;2023-03-14T05:20:42;98503.47;;;12.09;48.57
34124;BME280;13153;52.316;21.166;2023-03-14T05:23:11;98497.13;;;12.22;48.38
34124;BME280;13153;52.316;21.166;2023-03-14T05:25:36;98493.44;;;12.39;47.71
34124;BME280;13153;52.316;21.166;2023-03-14T05:28:02;98475.78;;;12.45;47.87
34124;BME280;13153;52.316;21.166;2023-03-14T05:30:29;98491.56;;;12.51;47.50
34124;BME280;13153;52.316;21.166;2023-03-14T05:32:56;98491.34;;;12.68;47.04
34124;BME280;13153;52.316;21.166;2023-03-14T05:35:22;98491.22;;;12.76;46.53
34124;BME280;13153;52.316;21.166;2023-03-14T05:37:48;98492.84;;;12.86;46.37
34124;BME280;13153;52.316;21.166;2023-03-14T05:40:14;98498.22;;;12.78;46.46
34124;BME280;13153;52.316;21.166;2023-03-14T05:42:39;98500.69;;;12.92;46.30
34124;BME280;13153;52.316;21.166;2023-03-14T05:45:06;98492.72;;;12.95;46.09
34124;BME280;13153;52.316;21.166;2023-03-14T05:47:32;98484.81;;;12.95;45.92
34124;BME280;13153;52.316;21.166;2023-03-14T05:49:58;98479.38;;;13.07;45.90
34124;BME280;13153;52.316;21.166;2023-03-14T05:52:23;98466.88;;;13.21;45.51
34124;BME280;13153;52.316;21.166;2023-03-14T05:54:49;98462.88;;;13.50;45.19
34124;BME280;13153;52.316;21.166;2023-03-14T05:57:15;98457.84;;;13.35;44.78
34124;BME280;13153;52.316;21.166;2023-03-14T05:59:41;98460.91;;;13.64;44.39
34124;BME280;13153;52.316;21.166;2023-03-14T06:02:07;98457.56;;;14.02;43.80
34124;BME280;13153;52.316;21.166;2023-03-14T06:04:33;98440.00;;;14.44;42.94
34124;BME280;13153;52.316;21.166;2023-03-14T06:06:58;98432.53;;;14.65;42.92
34124;BME280;13153;52.316;21.166;2023-03-14T06:09:24;98426.44;;;15.01;42.02
34124;BME280;13153;52.316;21.166;2023-03-14T06:11:50;98405.31;;;15.34;41.11
34124;BME280;13153;52.316;21.166;2023-03-14T06:14:17;98407.97;;;15.69;40.13
34124;BME280;13153;52.316;21.166;2023-03-14T06:16:43;98431.25;;;15.92;40.06
34124;BME280;13153;52.316;21.166;2023-03-14T06:19:09;98431.38;;;16.18;39.29
34124;BME280;13153;52.316;21.166;2023-03-14T06:21:34;98412.59;;;16.57;38.80
34124;BME280;13153;52.316;21.166;2023-03-14T06:24:00;98402.38;;;16.14;38.78
34124;BME280;13153;52.316;21.166;2023-03-14T06:26:26;98423.50;;;15.49;40.03
34124;BME280;13153;52.316;21.166;2023-03-14T06:28:52;98420.97;;;15.07;40.92
34124;BME280;13153;52.316;21.166;2023-03-14T06:31:19;98414.78;;;14.70;41.54
34124;BME280;13153;52.316;21.166;2023-03-14T06:33:44;98418.47;;;14.63;41.60
34124;BME280;13153;52.316;21.166;2023-03-14T06:36:10;98428.06;;;14.67;41.81
34124;BME280;13153;52.316;21.166;2023-03-14T06:38:36;98435.47;;;14.51;42.26
34124;BME280;13153;52.316;21.166;2023-03-14T06:41:06;98418.75;;;14.49;42.71
34124;BME280;13153;52.316;21.166;2023-03-14T06:43:33;98427.72;;;14.40;42.43
34124;BME280;13153;52.316;21.166;2023-03-14T06:45:59;98411.75;;;14.46;42.27
34124;BME280;13153;52.316;21.166;2023-03-14T06:48:24;98420.38;;;14.54;42.02
34124;BME280;13153;52.316;21.166;2023-03-14T06:50:50;98428.19;;;14.61;42.31
34124;BME280;13153;52.316;21.166;2023-03-14T06:53:16;98414.81;;;14.68;42.47
34124;BME280;13153;52.316;21.166;2023-03-14T06:55:42;98421.38;;;14.91;41.45
34124;BME280;13153;52.316;21.166;2023-03-14T06:58:08;98416.88;;;15.67;40.43
34124;BME280;13153;52.316;21.166;2023-03-14T07:00:35;98419.31;;;16.39;39.08
34124;BME280;13153;52.316;21.166;2023-03-14T07:03:01;98411.78;;;16.55;38.52
34124;BME280;13153;52.316;21.166;2023-03-14T07:05:27;98402.28;;;16.77;38.08
34124;BME280;13153;52.316;21.166;2023-03-14T07:07:53;98392.69;;;16.73;37.91
34124;BME280;13153;52.316;21.166;2023-03-14T07:10:19;98408.78;;;16.36;38.78
34124;BME280;13153;52.316;21.166;2023-03-14T07:12:45;98408.38;;;16.50;38.63
34124;BME280;13153;52.316;21.166;2023-03-14T07:15:10;98418.97;;;16.51;38.70
34124;BME280;13153;52.316;21.166;2023-03-14T07:17:36;98435.75;;;16.52;38.51
34124;BME280;13153;52.316;21.166;2023-03-14T07:20:03;98443.19;;;16.39;39.04
34124;BME280;13153;52.316;21.166;2023-03-14T07:22:32;98445.78;;;16.42;39.23
34124;BME280;13153;52.316;21.166;2023-03-14T07:24:58;98449.63;;;16.31;39.43
34124;BME280;13153;52.316;21.166;2023-03-14T07:27:24;98448.88;;;16.26;39.35
34124;BME280;13153;52.316;21.166;2023-03-14T07:29:50;98445.84;;;16.08;39.65
34124;BME280;13153;52.316;21.166;2023-03-14T07:32:16;98442.78;;;16.22;39.72
34124;BME280;13153;52.316;21.166;2023-03-14T07:34:42;98444.78;;;16.46;39.66
34124;BME280;13153;52.316;21.166;2023-03-14T07:37:08;98433.03;;;16.84;38.86
34124;BME280;13153;52.316;21.166;2023-03-14T07:39:33;98429.03;;;17.29;38.37
34124;BME280;13153;52.316;21.166;2023-03-14T07:42:00;98429.69;;;17.62;37.86
34124;BME280;13153;52.316;21.166;2023-03-14T07:44:26;98427.88;;;17.90;37.24
34124;BME280;13153;52.316;21.166;2023-03-14T07:46:52;98434.28;;;18.34;37.42
34124;BME280;13153;52.316;21.166;2023-03-14T07:49:18;98436.00;;;18.60;35.96
34124;BME280;13153;52.316;21.166;2023-03-14T07:51:47;98452.09;;;18.80;35.62
34124;BME280;13153;52.316;21.166;2023-03-14T07:54:14;98446.78;;;18.80;35.49
34124;BME280;13153;52.316;21.166;2023-03-14T07:56:39;98435.59;;;18.94;35.84
34124;BME280;13153;52.316;21.166;2023-03-14T07:59:05;98433.56;;;19.01;35.17
34124;BME280;13153;52.316;21.166;2023-03-14T08:01:31;98430.91;;;19.01;35.56
34124;BME280;13153;52.316;21.166;2023-03-14T08:03:57;98428.09;;;19.04;35.67
34124;BME280;13153;52.316;21.166;2023-03-14T08:06:23;98413.56;;;18.89;35.29
34124;BME280;13153;52.316;21.166;2023-03-14T08:08:49;98408.94;;;19.16;35.70
34124;BME280;13153;52.316;21.166;2023-03-14T08:11:14;98418.63;;;19.40;35.24
34124;BME280;13153;52.316;21.166;2023-03-14T08:13:40;98425.84;;;19.60;34.80
34124;BME280;13153;52.316;21.166;2023-03-14T08:16:07;98428.66;;;19.77;34.72
34124;BME280;13153;52.316;21.166;2023-03-14T08:18:33;98429.00;;;19.90;34.63
34124;BME280;13153;52.316;21.166;2023-03-14T08:20:59;98430.53;;;19.96;34.39
34124;BME280;13153;52.316;21.166;2023-03-14T08:23:24;98439.16;;;20.02;34.39
34124;BME280;13153;52.316;21.166;2023-03-14T08:25:51;98437.00;;;19.90;34.55
34124;BME280;13153;52.316;21.166;2023-03-14T08:28:18;98423.69;;;19.68;34.31
34124;BME280;13153;52.316;21.166;2023-03-14T08:30:44;98427.53;;;19.63;34.96
34124;BME280;13153;52.316;21.166;2023-03-14T08:33:10;98427.72;;;19.58;35.17
34124;BME280;13153;52.316;21.166;2023-03-14T08:35:38;98427.25;;;19.47;35.28
34124;BME280;13153;52.316;21.166;2023-03-14T08:38:04;98417.38;;;19.49;34.85
34124;BME280;13153;52.316;21.166;2023-03-14T08:40:30;98421.97;;;19.24;35.78
34124;BME280;13153;52.316;21.166;2023-03-14T08:42:56;98435.81;;;19.33;35.25
34124;BME280;13153;52.316;21.166;2023-03-14T08:45:21;98435.84;;;19.55;35.43
34124;BME280;13153;52.316;21.166;2023-03-14T08:47:49;98430.50;;;19.55;34.99
34124;BME280;13153;52.316;21.166;2023-03-14T08:50:14;98435.84;;;19.55;34.71
34124;BME280;13153;52.316;21.166;2023-03-14T08:52:40;98424.38;;;19.53;34.95
34124;BME280;13153;52.316;21.166;2023-03-14T08:55:08;98429.66;;;19.31;34.78
34124;BME280;13153;52.316;21.166;2023-03-14T08:57:34;98432.19;;;19.34;35.08
34124;BME280;13153;52.316;21.166;2023-03-14T09:00:00;98401.31;;;19.29;35.45
34124;BME280;13153;52.316;21.166;2023-03-14T09:02:26;98425.44;;;19.26;35.32
34124;BME280;13153;52.316;21.166;2023-03-14T09:04:53;98423.56;;;19.51;35.40
34124;BME280;13153;52.316;21.166;2023-03-14T09:07:19;98417.63;;;19.65;35.12
34124;BME280;13153;52.316;21.166;2023-03-14T09:09:45;98414.88;;;19.66;34.58
34124;BME280;13153;52.316;21.166;2023-03-14T09:12:11;98418.13;;;19.95;35.11
34124;BME280;13153;52.316;21.166;2023-03-14T09:14:37;98411.94;;;19.94;34.24
34124;BME280;13153;52.316;21.166;2023-03-14T09:17:04;98410.38;;;19.89;34.44
34124;BME280;13153;52.316;21.166;2023-03-14T09:19:30;98408.06;;;20.01;34.62
34124;BME280;13153;52.316;21.166;2023-03-14T09:21:56;98409.59;;;19.87;34.86
34124;BME280;13153;52.316;21.166;2023-03-14T09:24:21;98404.66;;;19.98;34.90
34124;BME280;13153;52.316;21.166;2023-03-14T09:26:47;98374.16;;;20.03;34.55
34124;BME280;13153;52.316;21.166;2023-03-14T09:29:13;98395.97;;;19.93;34.74
34124;BME280;13153;52.316;21.166;2023-03-14T09:31:39;98385.44;;;19.90;34.79
34124;BME280;13153;52.316;21.166;2023-03-14T09:34:04;98390.09;;;20.05;34.71
34124;BME280;13153;52.316;21.166;2023-03-14T09:36:30;98393.50;;;20.08;34.30
34124;BME280;13153;52.316;21.166;2023-03-14T09:38:56;98389.25;;;20.23;34.45
34124;BME280;13153;52.316;21.166;2023-03-14T09:41:30;98378.38;;;20.28;34.54
34124;BME280;13153;52.316;21.166;2023-03-14T09:44:08;98378.44;;;20.26;34.47
34124;BME280;13153;52.316;21.166;2023-03-14T09:46:38;98380.91;;;20.31;34.48
34124;BME280;13153;52.316;21.166;2023-03-14T09:49:30;98383.28;;;20.18;34.61
34124;BME280;13153;52.316;21.166;2023-03-14T09:52:01;98375.16;;;20.21;34.50
34124;BME280;13153;52.316;21.166;2023-03-14T09:54:38;98365.03;;;20.28;34.58
34124;BME280;13153;52.316;21.166;2023-03-14T09:57:32;98351.59;;;20.29;34.90
34124;BME280;13153;52.316;21.166;2023-03-14T10:00:19;98348.13;;;20.27;34.53
34124;BME280;13153;52.316;21.166;2023-03-14T10:03:31;98342.59;;;20.32;34.86
34124;BME280;13153;52.316;21.166;2023-03-14T10:05:58;98340.66;;;20.35;34.74
34124;BME280;13153;52.316;21.166;2023-03-14T10:08:24;98332.16;;;20.46;34.61
34124;BME280;13153;52.316;21.166;2023-03-14T10:10:49;98328.22;;;20.55;34.82
34124;BME280;13153;52.316;21.166;2023-03-14T10:13:22;98326.56;;;20.71;34.81
34124;BME280;13153;52.316;21.166;2023-03-14T10:16:01;98317.69;;;20.88;34.38
34124;BME280;13153;52.316;21.166;2023-03-14T10:18:30;98326.63;;;21.05;34.12
34124;BME280;13153;52.316;21.166;2023-03-14T10:21:26;98334.84;;;21.20;33.46
34124;BME280;13153;52.316;21.166;2023-03-14T10:23:53;98324.03;;;21.23;33.18
34124;BME280;13153;52.316;21.166;2023-03-14T10:26:27;98339.63;;;21.13;33.35
34124;BME280;13153;52.316;21.166;2023-03-14T10:29:02;98339.22;;;20.85;33.49
34124;BME280;13153;52.316;21.166;2023-03-14T10:32:01;98350.09;;;20.63;33.92
34124;BME280;13153;52.316;21.166;2023-03-14T10:34:35;98335.72;;;20.47;34.26
34124;BME280;13153;52.316;21.166;2023-03-14T10:37:24;98341.72;;;20.52;34.52
34124;BME280;13153;52.316;21.166;2023-03-14T10:39:55;98339.47;;;20.42;34.84
34124;BME280;13153;52.316;21.166;2023-03-14T10:42:30;98324.50;;;20.38;34.49
34124;BME280;13153;52.316;21.166;2023-03-14T10:45:04;98337.44;;;20.48;34.78
34124;BME280;13153;52.316;21.166;2023-03-14T10:47:33;98336.38;;;20.52;34.80
34124;BME280;13153;52.316;21.166;2023-03-14T10:50:29;98325.25;;;20.42;34.63
34124;BME280;13153;52.316;21.166;2023-03-14T10:52:56;98300.97;;;20.47;34.64
34124;BME280;13153;52.316;21.166;2023-03-14T10:55:24;98308.19;;;20.44;34.67
34124;BME280;13153;52.316;21.166;2023-03-14T10:57:53;98306.75;;;20.56;34.57
34124;BME280;13153;52.316;21.166;2023-03-14T11:00:22;98307.69;;;20.55;34.86
34124;BME280;13153;52.316;21.166;2023-03-14T11:08:54;98309.06;;;20.45;34.81
34124;BME280;13153;52.316;21.166;2023-03-14T11:11:27;98306.41;;;20.45;35.05
34124;BME280;13153;52.316;21.166;2023-03-14T11:14:23;98326.09;;;20.42;34.84
34124;BME280;13153;52.316;21.166;2023-03-14T11:17:12;98317.00;;;20.47;34.89
34124;BME280;13153;52.316;21.166;2023-03-14T11:26:23;98334.06;;;20.24;35.20
34124;BME280;13153;52.316;21.166;2023-03-14T11:28:58;98325.47;;;20.17;35.42
34124;BME280;13153;52.316;21.166;2023-03-14T11:31:35;98332.56;;;20.18;35.42
34124;BME280;13153;52.316;21.166;2023-03-14T11:34:28;98334.91;;;20.24;35.30
34124;BME280;13153;52.316;21.166;2023-03-14T11:37:21;98335.09;;;20.21;35.53
34124;BME280;13153;52.316;21.166;2023-03-14T11:40:14;98342.38;;;20.18;35.82
34124;BME280;13153;52.316;21.166;2023-03-14T11:42:44;98338.25;;;20.10;35.97
34124;BME280;13153;52.316;21.166;2023-03-14T11:45:25;98334.13;;;20.03;36.00
34124;BME280;13153;52.316;21.166;2023-03-14T11:51:09;98321.44;;;20.08;35.97
34124;BME280;13153;52.316;21.166;2023-03-14T11:56:43;98309.59;;;20.14;35.40
34124;BME280;13153;52.316;21.166;2023-03-14T12:02:09;98315.75;;;19.96;35.86
34124;BME280;13153;52.316;21.166;2023-03-14T12:05:25;98324.38;;;19.82;35.92
34124;BME280;13153;52.316;21.166;2023-03-14T12:10:46;98317.41;;;19.59;36.51
34124;BME280;13153;52.316;21.166;2023-03-14T12:13:15;98327.13;;;19.38;36.79
34124;BME280;13153;52.316;21.166;2023-03-14T12:15:59;98327.84;;;19.22;37.07
34124;BME280;13153;52.316;21.166;2023-03-14T12:18:31;98327.66;;;19.26;36.96
34124;BME280;13153;52.316;21.166;2023-03-14T12:21:04;98306.59;;;19.40;37.55
34124;BME280;13153;52.316;21.166;2023-03-14T12:23:45;98318.84;;;19.66;37.01
34124;BME280;13153;52.316;21.166;2023-03-14T12:29:15;98323.44;;;20.03;36.46
34124;BME280;13153;52.316;21.166;2023-03-14T12:32:21;98324.97;;;20.09;35.85
34124;BME280;13153;52.316;21.166;2023-03-14T12:34:48;98328.50;;;20.09;35.93
34124;BME280;13153;52.316;21.166;2023-03-14T12:37:28;98326.09;;;20.03;36.14
34124;BME280;13153;52.316;21.166;2023-03-14T12:40:13;98327.91;;;20.03;36.15
34124;BME280;13153;52.316;21.166;2023-03-14T12:43:00;98339.00;;;19.94;36.52
34124;BME280;13153;52.316;21.166;2023-03-14T12:45:35;98330.31;;;19.89;36.64
34124;BME280;13153;52.316;21.166;2023-03-14T12:48:23;98333.19;;;19.84;36.87
34124;BME280;13153;52.316;21.166;2023-03-14T12:51:11;98323.63;;;19.78;37.02
34124;BME280;13153;52.316;21.166;2023-03-14T12:59:45;98330.97;;;19.73;37.64
34124;BME280;13153;52.316;21.166;2023-03-14T13:02:26;98339.06;;;19.72;37.87
34124;BME280;13153;52.316;21.166;2023-03-14T13:15:39;98361.00;;;19.14;40.10
34124;BME280;13153;52.316;21.166;2023-03-14T13:18:18;98362.06;;;19.10;40.87
34124;BME280;13153;52.316;21.166;2023-03-14T13:20:54;98353.84;;;18.95;41.73
34124;BME280;13153;52.316;21.166;2023-03-14T13:23:32;98370.56;;;18.76;43.15
34124;BME280;13153;52.316;21.166;2023-03-14T13:26:00;98368.91;;;18.49;44.44
34124;BME280;13153;52.316;21.166;2023-03-14T13:28:28;98365.63;;;18.42;45.31
34124;BME280;13153;52.316;21.166;2023-03-14T13:31:02;98372.75;;;18.42;45.80
34124;BME280;13153;52.316;21.166;2023-03-14T13:33:28;98378.34;;;18.34;46.01
34124;BME280;13153;52.316;21.166;2023-03-14T13:36:04;98378.53;;;18.30;46.50
34124;BME280;13153;52.316;21.166;2023-03-14T13:38:34;98377.78;;;18.26;46.79
34124;BME280;13153;52.316;21.166;2023-03-14T13:41:06;98385.00;;;18.23;47.11
34124;BME280;13153;52.316;21.166;2023-03-14T13:43:43;98383.47;;;18.15;47.67
34124;BME280;13153;52.316;21.166;2023-03-14T13:46:22;98380.28;;;18.06;48.47
34124;BME280;13153;52.316;21.166;2023-03-14T13:48:52;98377.03;;;17.98;48.60
34124;BME280;13153;52.316;21.166;2023-03-14T13:51:20;98375.59;;;17.89;49.01
34124;BME280;13153;52.316;21.166;2023-03-14T13:53:55;98375.78;;;17.83;49.11